Time;durP1;ratioP1;P1;durP2;ratioP2;P2;SDS_P1;SDS_P2;PMS_P1;PMS_P2;Temp;Humidity;BMP_temperature;BMP_pressure;BME280_temperature;BME280_humidity;BME280_pressure;Samples;Min_cycle;Max_cycle;Signal;HPM_P1;HPM_P2
2022/10/13 00:01:18;;;;;;;27.52;15.93;;;4.20;99.90;;;;;;5093525;28;20025;-75
2022/10/13 00:03:45;;;;;;;30.35;17.15;;;4.20;99.90;;;;;;5093396;28;20039;-72
2022/10/13 00:06:12;;;;;;;28.73;14.75;;;4.20;99.90;;;;;;5093356;28;20040;-74
2022/10/13 00:08:39;;;;;;;25.50;15.00;;;4.20;99.90;;;;;;5092059;28;20534;-72
2022/10/13 00:11:12;;;;;;;27.52;15.50;;;4.20;99.90;;;;;;5093301;28;20028;-75
2022/10/13 00:13:38;;;;;;;;;;;4.20;99.90;;;;;;5093827;28;20401;-73
2022/10/13 00:16:04;;;;;;;34.28;17.55;;;4.20;99.90;;;;;;5092063;28;19911;-75
2022/10/13 00:18:29;;;;;;;35.08;17.65;;;4.10;99.90;;;;;;5101715;28;20020;-72
2022/10/13 00:20:55;;;;;;;35.42;18.00;;;4.10;99.90;;;;;;5116350;28;20024;-74
2022/10/13 00:23:20;;;;;;;31.52;17.38;;;4.10;99.90;;;;;;5116255;28;20038;-75
2022/10/13 00:25:48;;;;;;;21.63;14.48;;;4.10;99.90;;;;;;5117508;28;20046;-75
2022/10/13 00:28:15;;;;;;;23.98;15.10;;;4.10;99.90;;;;;;5101375;28;20024;-72
2022/10/13 00:30:41;;;;;;;31.65;15.85;;;4.00;99.90;;;;;;5095759;28;20034;-72
2022/10/13 00:33:07;;;;;;;29.70;15.13;;;4.00;99.90;;;;;;5112643;28;20027;-73
2022/10/13 00:35:33;;;;;;;25.88;14.20;;;4.00;99.90;;;;;;5115552;28;20051;-72
2022/10/13 00:37:59;;;;;;;26.40;13.70;;;4.00;99.90;;;;;;5095557;28;20097;-73
2022/10/13 00:40:24;;;;;;;24.33;13.05;;;4.00;99.90;;;;;;5096853;28;20028;-75
2022/10/13 00:42:50;;;;;;;21.55;13.82;;;4.10;99.90;;;;;;5095605;28;20050;-74
2022/10/13 00:45:22;;;;;;;21.00;11.45;;;4.10;99.90;;;;;;5096713;28;20478;-72
2022/10/13 00:47:54;;;;;;;25.35;13.23;;;4.10;99.90;;;;;;5096819;28;20440;-72
2022/10/13 00:50:23;;;;;;;25.15;12.80;;;4.20;99.90;;;;;;5096463;28;20024;-74
2022/10/13 00:52:52;;;;;;;28.08;13.18;;;4.20;99.90;;;;;;5096644;28;20027;-72
2022/10/13 00:55:21;;;;;;;27.38;13.50;;;4.10;99.90;;;;;;5096525;28;20489;-75
2022/10/13 00:57:53;;;;;;;26.48;14.60;;;4.10;99.90;;;;;;5096608;28;20479;-75
2022/10/13 01:00:20;;;;;;;23.67;12.82;;;4.20;99.90;;;;;;5095131;28;20116;-72
2022/10/13 01:02:46;;;;;;;23.67;13.35;;;4.20;99.90;;;;;;5096656;28;20016;-75
2022/10/13 01:05:12;;;;;;;28.00;14.18;;;4.20;99.90;;;;;;5096301;28;20035;-75
2022/10/13 01:07:37;;;;;;;22.55;13.02;;;4.20;99.90;;;;;;5114078;28;20623;-75
2022/10/13 01:10:03;;;;;;;24.42;13.57;;;4.30;99.90;;;;;;5116531;28;20548;-75
2022/10/13 01:12:44;;;;;;;21.58;13.50;;;4.30;99.90;;;;;;5116653;28;20023;-72
2022/10/13 01:15:31;;;;;;;28.70;13.68;;;4.30;99.90;;;;;;5115210;28;20023;-75
2022/10/13 01:18:16;;;;;;;24.15;12.85;;;4.30;99.90;;;;;;5116793;28;20024;-72
2022/10/13 01:21:00;;;;;;;20.45;11.38;;;4.30;99.90;;;;;;5116504;28;20423;-74
2022/10/13 01:23:41;;;;;;;23.77;13.77;;;4.30;99.90;;;;;;5116494;28;20028;-72
2022/10/13 01:26:24;;;;;;;25.33;13.75;;;4.30;99.90;;;;;;5115026;28;20374;-75
2022/10/13 01:29:07;;;;;;;25.50;13.63;;;4.30;99.90;;;;;;5075658;28;20064;-72
2022/10/13 01:31:42;;;;;;;25.85;12.43;;;4.30;99.90;;;;;;5079433;28;20024;-74
2022/10/13 01:34:07;;;;;;;26.05;13.48;;;4.30;99.90;;;;;;5114716;28;20440;-72
2022/10/13 01:36:46;;;;;;;21.67;11.57;;;4.20;99.90;;;;;;5114688;28;20051;-72
2022/10/13 01:39:21;;;;;;;20.42;12.20;;;4.20;99.90;;;;;;5116190;28;20016;-73
2022/10/13 01:41:51;;;;;;;22.35;11.95;;;4.20;99.90;;;;;;5116069;28;20051;-75
2022/10/13 01:44:25;;;;;;;26.15;13.85;;;4.10;99.90;;;;;;5116040;28;20026;-75
2022/10/13 01:46:52;;;;;;;27.88;13.82;;;4.10;99.90;;;;;;5116092;28;20118;-72
2022/10/13 01:49:21;;;;;;;28.65;15.05;;;4.10;99.90;;;;;;5115964;28;20471;-73
2022/10/13 01:51:47;;;;;;;23.90;13.27;;;4.10;99.90;;;;;;5115925;28;20024;-72
2022/10/13 01:54:13;;;;;;;30.42;13.60;;;4.10;99.90;;;;;;5109768;28;20031;-75
2022/10/13 01:56:38;;;;;;;27.52;15.68;;;4.10;99.90;;;;;;5095410;28;20028;-75
2022/10/13 01:59:10;;;;;;;21.73;11.93;;;4.10;99.90;;;;;;5095326;28;20373;-75
2022/10/13 02:01:45;;;;;;;27.35;13.80;;;4.10;99.90;;;;;;5095427;28;20378;-74
2022/10/13 02:04:29;;;;;;;22.10;13.27;;;4.10;99.90;;;;;;5095174;28;20541;-75
2022/10/13 02:07:12;;;;;;;25.92;13.75;;;4.10;99.90;;;;;;5095208;28;20370;-72
2022/10/13 02:10:02;;;;;;;24.75;12.35;;;4.10;99.90;;;;;;5095145;28;20028;-75
2022/10/13 02:12:57;;;;;;;21.25;11.63;;;4.10;99.90;;;;;;5095155;28;20028;-75
2022/10/13 02:15:38;;;;;;;23.63;12.70;;;4.10;99.90;;;;;;5094587;28;20043;-72
2022/10/13 02:18:06;;;;;;;20.33;12.75;;;4.10;99.90;;;;;;5099710;28;20016;-75
2022/10/13 02:20:33;;;;;;;27.42;12.60;;;4.00;99.90;;;;;;5113929;28;20038;-75
2022/10/13 02:23:06;;;;;;;25.30;13.38;;;4.00;99.90;;;;;;5115315;28;20030;-75
2022/10/13 02:25:32;;;;;;;;;;;4.10;99.90;;;;;;5115601;27;20048;-75
2022/10/13 02:28:00;;;;;;;28.25;13.63;;;4.00;99.90;;;;;;5100941;28;19996;-73
2022/10/13 02:30:27;;;;;;;27.50;13.50;;;4.00;99.90;;;;;;5094565;28;20020;-72
2022/10/13 02:32:53;;;;;;;25.38;13.60;;;4.00;99.90;;;;;;5109212;28;20069;-73
2022/10/13 02:35:19;;;;;;;20.42;12.15;;;4.00;99.90;;;;;;5114870;28;20055;-72
2022/10/13 02:37:44;;;;;;;20.30;12.85;;;4.10;99.90;;;;;;5094879;28;20098;-73
2022/10/13 02:40:10;;;;;;;24.23;12.27;;;4.10;99.90;;;;;;5094397;28;20052;-74
2022/10/13 02:42:36;;;;;;;24.00;13.25;;;4.10;99.90;;;;;;5092348;28;20103;-72
2022/10/13 02:45:03;;;;;;;26.63;13.68;;;4.10;99.90;;;;;;5094532;28;20048;-72
2022/10/13 02:47:28;;;;;;;24.33;13.55;;;4.10;99.90;;;;;;5094298;28;20114;-75
2022/10/13 02:49:54;;;;;;;25.23;14.00;;;4.10;99.90;;;;;;5094423;28;20051;-72
2022/10/13 02:52:19;;;;;;;24.67;12.70;;;4.10;99.90;;;;;;5093115;28;20473;-75
2022/10/13 02:54:45;;;;;;;21.48;12.57;;;4.10;99.90;;;;;;5094350;28;20466;-72
2022/10/13 02:57:10;;;;;;;28.52;14.32;;;4.10;99.90;;;;;;5094230;28;20036;-74
2022/10/13 02:59:36;;;;;;;26.02;12.98;;;4.20;99.90;;;;;;5092925;28;20028;-74
2022/10/13 03:02:01;;;;;;;22.98;14.65;;;4.20;99.90;;;;;;5094066;28;20035;-75
2022/10/13 03:04:27;;;;;;;20.63;12.05;;;4.20;99.90;;;;;;5092906;28;20028;-72
2022/10/13 03:06:53;;;;;;;18.48;11.90;;;4.20;99.90;;;;;;5104229;28;20114;-75
2022/10/13 03:09:18;;;;;;;23.77;12.50;;;4.20;99.90;;;;;;5114431;28;20047;-74
2022/10/13 03:11:44;;;;;;;23.83;12.70;;;4.20;99.90;;;;;;5114310;28;20481;-75
2022/10/13 03:14:10;;;;;;;25.55;13.23;;;4.20;99.90;;;;;;5113053;28;20465;-72
2022/10/13 03:16:35;;;;;;;22.55;12.73;;;4.20;99.90;;;;;;5114331;28;20032;-72
2022/10/13 03:19:01;;;;;;;25.23;13.27;;;4.20;99.90;;;;;;5114475;28;20099;-72
2022/10/13 03:21:26;;;;;;;26.38;14.60;;;4.20;99.90;;;;;;5112878;28;20049;-75
2022/10/13 03:23:52;;;;;;;22.92;13.63;;;4.20;99.90;;;;;;5111091;28;20455;-72
2022/10/13 03:26:18;;;;;;;26.63;15.10;;;4.20;99.90;;;;;;5092274;28;20042;-72
2022/10/13 03:28:51;;;;;;;21.88;12.40;;;4.20;99.90;;;;;;5093919;28;20020;-74
2022/10/13 03:31:17;;;;;;;25.77;12.32;;;4.20;99.90;;;;;;5093653;28;20020;-75
2022/10/13 03:33:43;;;;;;;21.30;11.23;;;4.20;99.90;;;;;;5093682;28;20016;-75
2022/10/13 03:36:11;;;;;;;22.92;12.80;;;4.20;99.90;;;;;;5092150;28;20497;-74
2022/10/13 03:38:36;;;;;;;24.38;13.00;;;4.10;99.90;;;;;;5093773;28;20428;-72
2022/10/13 03:41:07;;;;;;;23.85;12.40;;;4.10;99.90;;;;;;5093562;28;20059;-74
2022/10/13 03:43:33;;;;;;;22.23;13.32;;;4.10;99.90;;;;;;5093728;28;20020;-75
2022/10/13 03:46:01;;;;;;;21.27;12.85;;;4.10;99.90;;;;;;5092087;28;20028;-75
2022/10/13 03:48:27;;;;;;;24.08;12.90;;;4.10;99.90;;;;;;5101505;28;20377;-72
2022/10/13 03:50:54;;;;;;;22.98;12.60;;;4.10;99.90;;;;;;5113916;28;20462;-75
2022/10/13 03:53:20;;;;;;;27.67;12.52;;;4.10;99.90;;;;;;5112760;28;20027;-75
2022/10/13 03:55:54;;;;;;;24.92;13.50;;;4.10;99.90;;;;;;5118168;28;20383;-72
2022/10/13 03:58:22;;;;;;;25.92;14.10;;;4.10;99.90;;;;;;5118030;28;20024;-75
2022/10/13 04:00:48;;;;;;;21.88;13.57;;;4.00;99.90;;;;;;5117949;28;20127;-75
2022/10/13 04:03:15;;;;;;;28.40;13.55;;;4.00;99.90;;;;;;5117958;28;20022;-73
2022/10/13 04:05:41;;;;;;;25.20;13.38;;;4.00;99.90;;;;;;5116400;28;20032;-74
2022/10/13 04:08:07;;;;;;;19.67;12.98;;;3.90;99.90;;;;;;5097435;28;20036;-73
2022/10/13 04:10:33;;;;;;;29.05;15.38;;;3.90;99.90;;;;;;5096167;28;20400;-75
2022/10/13 04:12:58;;;;;;;26.27;15.57;;;3.90;99.90;;;;;;5097335;28;20099;-74
2022/10/13 04:15:24;;;;;;;21.30;13.90;;;3.80;99.90;;;;;;5096076;28;20024;-75
2022/10/13 04:17:50;;;;;;;31.60;16.90;;;3.80;99.90;;;;;;5099760;28;20028;-75
2022/10/13 04:20:16;;;;;;;25.83;15.40;;;3.70;99.90;;;;;;5117691;28;20103;-72
2022/10/13 04:22:41;;;;;;;27.55;16.27;;;3.70;99.90;;;;;;5117683;27;20030;-74
2022/10/13 04:25:08;;;;;;;31.23;15.88;;;3.70;99.90;;;;;;5117575;28;20031;-74
2022/10/13 04:27:37;;;;;;;27.95;17.17;;;3.70;99.90;;;;;;5105746;28;20028;-72
2022/10/13 04:30:05;;;;;;;29.58;16.88;;;3.60;99.90;;;;;;5101485;28;20015;-72
2022/10/13 04:32:30;;;;;;;33.60;18.98;;;3.60;99.90;;;;;;5105291;28;20020;-75
2022/10/13 04:34:56;;;;;;;34.95;17.58;;;3.60;99.90;;;;;;5095622;28;20113;-74
2022/10/13 04:37:23;;;;;;;32.85;18.05;;;3.60;99.90;;;;;;5095695;28;20062;-73
2022/10/13 04:39:49;;;;;;;29.48;14.85;;;3.60;99.90;;;;;;5096880;28;20093;-75
2022/10/13 04:42:14;;;;;;;27.60;15.40;;;3.60;99.90;;;;;;5096809;28;20024;-75
2022/10/13 04:44:40;;;;;;;23.98;14.95;;;3.70;99.90;;;;;;5096723;28;20040;-74
2022/10/13 04:47:06;;;;;;;25.27;14.85;;;3.60;99.90;;;;;;5096650;28;20077;-73
2022/10/13 04:49:32;;;;;;;23.38;14.00;;;3.70;99.90;;;;;;5096721;28;20027;-75
2022/10/13 04:51:57;;;;;;;22.90;13.52;;;3.60;99.90;;;;;;5096621;28;20020;-72
2022/10/13 04:54:23;;;;;;;28.40;15.82;;;3.70;99.90;;;;;;5096711;28;20415;-72
2022/10/13 04:56:49;;;;;;;26.60;15.30;;;3.70;99.90;;;;;;5096621;28;20020;-75
2022/10/13 04:59:14;;;;;;;25.63;14.02;;;3.70;99.90;;;;;;5096486;28;20054;-74
2022/10/13 05:01:40;;;;;;;23.83;13.13;;;3.70;99.90;;;;;;5114684;28;20380;-74
2022/10/13 05:04:06;;;;;;;29.40;13.70;;;3.70;99.90;;;;;;5116783;28;20027;-75
2022/10/13 05:06:33;;;;;;;21.63;13.25;;;3.70;99.90;;;;;;5114329;28;20042;-75
2022/10/13 05:08:59;;;;;;;26.27;13.40;;;3.70;99.90;;;;;;5116696;27;20024;-73
2022/10/13 05:11:27;;;;;;;23.65;13.65;;;3.70;99.90;;;;;;5116670;28;20030;-75
2022/10/13 05:13:53;;;;;;;23.67;13.05;;;3.70;99.90;;;;;;5116672;28;20381;-75
2022/10/13 05:16:20;;;;;;;24.90;13.63;;;3.70;99.90;;;;;;5116604;28;20099;-72
2022/10/13 05:18:46;;;;;;;19.25;13.85;;;3.70;99.90;;;;;;5105879;28;20020;-75
2022/10/13 05:21:14;;;;;;;27.83;14.25;;;3.80;99.90;;;;;;5096123;28;20465;-72
2022/10/13 05:23:40;;;;;;;22.02;13.30;;;3.80;99.90;;;;;;5094679;28;20035;-75
2022/10/13 05:26:09;;;;;;;27.83;13.48;;;3.80;99.90;;;;;;5095863;28;20440;-75
2022/10/13 05:28:35;;;;;;;24.40;14.50;;;3.80;99.90;;;;;;5074374;28;20044;-72
2022/10/13 05:31:14;;;;;;;25.23;13.73;;;3.80;99.90;;;;;;5099719;28;20444;-72
2022/10/13 05:33:40;;;;;;;27.60;14.80;;;3.80;99.90;;;;;;5074337;28;20465;-72
2022/10/13 05:36:11;;;;;;;26.80;14.82;;;3.80;99.90;;;;;;5075586;28;20060;-72
2022/10/13 05:38:38;;;;;;;28.05;14.30;;;3.80;99.90;;;;;;5075476;28;20434;-72
2022/10/13 05:41:09;;;;;;;25.92;14.15;;;3.90;99.90;;;;;;5075564;28;20024;-72
2022/10/13 05:43:40;;;;;;;30.80;14.95;;;4.00;99.90;;;;;;5110543;28;20016;-72
2022/10/13 05:46:06;;;;;;;29.13;13.77;;;4.00;99.90;;;;;;5115932;28;20123;-72
2022/10/13 05:48:33;;;;;;;25.23;14.23;;;4.10;99.90;;;;;;5114366;28;20481;-74
2022/10/13 05:51:00;;;;;;;21.55;13.35;;;4.20;99.90;;;;;;5114666;28;20023;-74
2022/10/13 05:53:30;;;;;;;36.10;16.73;;;4.30;99.90;;;;;;5114485;28;20506;-74
2022/10/13 05:56:04;;;;;;;26.42;15.52;;;4.30;99.90;;;;;;5075239;28;20366;-72
2022/10/13 05:58:33;;;;;;;21.88;12.80;;;4.40;99.90;;;;;;5075154;28;20021;-74
2022/10/13 06:00:58;;;;;;;25.58;13.10;;;4.40;99.90;;;;;;5075046;28;20068;-75
2022/10/13 06:03:24;;;;;;;26.40;13.43;;;4.50;99.90;;;;;;5074978;28;20034;-75
2022/10/13 06:05:50;;;;;;;23.08;14.18;;;4.60;99.90;;;;;;5074939;28;20032;-74
2022/10/13 06:08:16;;;;;;;24.25;14.55;;;4.70;99.90;;;;;;5074938;28;20046;-74
2022/10/13 06:10:42;;;;;;;20.35;13.38;;;4.80;99.90;;;;;;5075077;28;20028;-74
2022/10/13 06:13:08;;;;;;;33.22;14.95;;;5.00;99.90;;;;;;5074851;28;20025;-74
2022/10/13 06:15:34;;;;;;;27.52;14.18;;;5.10;99.90;;;;;;5074829;28;20025;-74
2022/10/13 06:18:00;;;;;;;22.38;14.20;;;5.20;99.90;;;;;;5074839;28;20107;-74
2022/10/13 06:20:29;;;;;;;20.25;14.13;;;5.40;99.90;;;;;;5074593;28;20060;-71
2022/10/13 06:22:55;;;;;;;27.98;13.52;;;5.60;99.90;;;;;;5074698;28;20378;-71
2022/10/13 06:25:21;;;;;;;25.92;12.75;;;5.70;99.90;;;;;;5074522;28;20017;-74
2022/10/13 06:27:46;;;;;;;26.55;12.45;;;5.90;99.90;;;;;;5087149;28;20040;-71
2022/10/13 06:30:12;;;;;;;23.42;13.85;;;6.00;99.90;;;;;;5094685;28;20488;-74
2022/10/13 06:32:37;;;;;;;19.02;11.65;;;6.10;99.90;;;;;;5094706;28;20420;-72
2022/10/13 06:35:03;;;;;;;23.23;12.02;;;6.30;99.90;;;;;;5093213;28;20056;-71
2022/10/13 06:37:29;;;;;;;19.30;11.85;;;6.40;99.90;;;;;;5094737;28;20012;-74
2022/10/13 06:39:55;;;;;;;20.70;12.40;;;6.50;99.90;;;;;;5094496;28;20373;-72
2022/10/13 06:42:20;;;;;;;20.63;12.02;;;6.70;99.90;;;;;;5099795;28;20091;-71
2022/10/13 06:44:46;;;;;;;17.33;11.55;;;6.90;99.90;;;;;;5113609;28;20020;-75
2022/10/13 06:47:11;;;;;;;16.40;10.27;;;7.00;99.90;;;;;;5114823;28;20039;-75
2022/10/13 06:49:37;;;;;;;23.70;11.05;;;7.20;99.90;;;;;;5114733;28;20032;-74
2022/10/13 06:52:03;;;;;;;25.90;11.23;;;7.40;99.90;;;;;;5114872;28;20019;-71
2022/10/13 06:54:29;;;;;;;19.70;11.13;;;7.50;99.90;;;;;;5114590;28;20122;-73
2022/10/13 06:56:55;;;;;;;17.88;11.13;;;7.60;99.90;;;;;;5114781;28;20096;-72
2022/10/13 06:59:20;;;;;;;22.77;11.88;;;7.80;99.90;;;;;;5114492;28;20027;-74
2022/10/13 07:01:47;;;;;;;15.88;10.13;;;7.90;99.90;;;;;;5114536;28;20478;-75
2022/10/13 07:04:13;;;;;;;17.08;10.55;;;8.00;99.90;;;;;;5114451;28;20046;-72
2022/10/13 07:06:39;;;;;;;13.95;9.27;;;8.10;99.90;;;;;;5114463;28;20039;-71
2022/10/13 07:09:07;;;;;;;15.52;10.88;;;8.30;99.90;;;;;;5114443;28;20020;-75
2022/10/13 07:11:33;;;;;;;16.25;9.40;;;8.30;99.90;;;;;;5097230;28;20020;-71
2022/10/13 07:13:59;;;;;;;18.60;10.13;;;8.50;99.90;;;;;;5093065;28;20073;-70
2022/10/13 07:16:24;;;;;;;16.35;9.43;;;8.60;99.90;;;;;;5090659;27;20039;-71
2022/10/13 07:18:50;;;;;;;14.93;9.68;;;8.70;99.90;;;;;;5095234;28;20017;-75
2022/10/13 07:21:16;;;;;;;14.82;9.55;;;8.90;99.90;;;;;;5092206;27;20065;-71
2022/10/13 07:23:42;;;;;;;19.70;9.73;;;9.00;99.90;;;;;;5098956;28;20091;-72
2022/10/13 07:26:09;;;;;;;11.20;8.05;;;9.00;99.90;;;;;;5100143;28;20048;-75
2022/10/13 07:28:35;;;;;;;18.15;9.40;;;9.20;99.90;;;;;;5097252;28;20023;-75
2022/10/13 07:31:10;;;;;;;13.60;8.90;;;9.30;99.90;;;;;;5111945;27;20472;-75
2022/10/13 07:33:37;;;;;;;14.35;8.13;;;9.40;99.90;;;;;;5092949;28;20430;-75
2022/10/13 07:36:03;;;;;;;14.18;8.20;;;9.50;99.90;;;;;;5110940;28;20504;-75
2022/10/13 07:38:29;;;;;;;14.15;7.93;;;9.60;99.90;;;;;;5112033;28;20023;-70
2022/10/13 07:40:54;;;;;;;18.35;8.45;;;9.70;99.90;;;;;;5110937;28;20027;-70
2022/10/13 07:43:20;;;;;;;18.10;8.35;;;9.90;99.90;;;;;;5112579;28;20074;-70
2022/10/13 07:45:45;;;;;;;11.70;8.15;;;9.90;99.90;;;;;;5112351;28;20024;-75
2022/10/13 07:48:11;;;;;;;10.00;8.48;;;10.00;99.90;;;;;;5111394;28;20451;-75
2022/10/13 07:50:37;;;;;;;13.57;8.57;;;10.00;99.90;;;;;;5100930;28;20381;-75
2022/10/13 07:53:02;;;;;;;13.95;7.68;;;10.20;99.90;;;;;;5111350;28;20129;-70
2022/10/13 07:55:28;;;;;;;14.23;8.23;;;10.30;99.90;;;;;;5111642;28;20023;-70
2022/10/13 07:57:54;;;;;;;13.63;7.80;;;10.30;99.90;;;;;;5109553;28;20054;-70
2022/10/13 08:00:19;;;;;;;14.38;8.20;;;10.30;99.90;;;;;;5112193;28;20533;-75
2022/10/13 08:02:49;;;;;;;14.38;8.52;;;10.40;99.90;;;;;;5112207;27;20035;-71
2022/10/13 08:05:15;;;;;;;14.68;7.32;;;10.50;99.90;;;;;;5110941;28;20082;-71
2022/10/13 08:07:40;;;;;;;11.10;6.75;;;10.50;99.90;;;;;;5112018;27;20036;-74
2022/10/13 08:10:07;;;;;;;12.02;7.53;;;10.60;99.90;;;;;;5111685;28;20023;-75
2022/10/13 08:12:34;;;;;;;15.68;7.22;;;10.70;99.70;;;;;;5110738;28;20059;-70
2022/10/13 08:15:00;;;;;;;12.82;7.53;;;10.80;98.10;;;;;;5112194;28;20019;-74
2022/10/13 08:17:26;;;;;;;10.43;7.25;;;10.90;99.90;;;;;;5096645;27;20059;-75
2022/10/13 08:19:51;;;;;;;10.48;7.22;;;10.90;96.60;;;;;;5110867;28;20027;-75
2022/10/13 08:22:17;;;;;;;11.85;7.18;;;11.10;97.10;;;;;;5112345;28;20388;-74
2022/10/13 08:24:42;;;;;;;14.13;8.07;;;11.20;95.00;;;;;;5111228;28;20028;-75
2022/10/13 08:27:11;;;;;;;12.27;8.00;;;11.20;93.40;;;;;;5112080;28;20048;-70
2022/10/13 08:29:37;;;;;;;16.02;8.20;;;11.30;93.90;;;;;;5098510;28;20073;-75
2022/10/13 08:32:02;;;;;;;12.00;7.57;;;11.40;93.40;;;;;;5103982;28;20040;-70
2022/10/13 08:34:28;;;;;;;13.23;7.60;;;11.40;92.20;;;;;;5092050;28;20044;-70
2022/10/13 08:36:55;;;;;;;9.60;7.20;;;11.50;91.40;;;;;;5092458;28;20073;-70
2022/10/13 08:39:21;;;;;;;15.90;7.75;;;11.50;91.40;;;;;;5091801;28;20027;-70
2022/10/13 08:41:47;;;;;;;12.23;7.05;;;11.60;91.50;;;;;;5096545;28;20028;-70
2022/10/13 08:44:25;;;;;;;11.70;7.32;;;11.70;89.80;;;;;;5096564;28;20039;-74
2022/10/13 08:47:11;;;;;;;11.80;6.90;;;11.80;89.20;;;;;;5095326;28;20032;-74
2022/10/13 08:49:36;;;;;;;11.88;7.00;;;11.90;87.80;;;;;;5095494;28;20028;-74
2022/10/13 08:52:04;;;;;;;10.60;6.35;;;12.00;88.80;;;;;;5096625;28;20024;-71
2022/10/13 08:54:31;;;;;;;9.80;5.90;;;12.10;87.10;;;;;;5095401;28;20028;-70
2022/10/13 08:56:56;;;;;;;11.25;6.47;;;12.20;88.60;;;;;;5095283;28;20508;-74
2022/10/13 08:59:22;;;;;;;10.32;6.50;;;12.30;84.70;;;;;;5095340;28;20028;-70
2022/10/13 09:01:54;;;;;;;13.32;6.55;;;12.40;85.00;;;;;;5114477;28;20376;-71
2022/10/13 09:04:39;;;;;;;10.77;6.45;;;12.40;82.70;;;;;;5116940;28;20031;-74
2022/10/13 09:07:17;;;;;;;9.38;6.20;;;12.50;83.10;;;;;;5116779;28;20039;-74
2022/10/13 09:09:43;;;;;;;12.82;7.40;;;12.50;83.00;;;;;;5115629;28;20015;-74
2022/10/13 09:12:12;;;;;;;13.45;6.40;;;12.60;83.30;;;;;;5116658;28;20096;-71
2022/10/13 09:14:39;;;;;;;12.18;6.22;;;12.70;82.30;;;;;;5116705;28;20480;-70
2022/10/13 09:17:22;;;;;;;10.60;6.43;;;12.80;82.30;;;;;;5103434;27;20024;-70
2022/10/13 09:20:12;;;;;;;8.63;5.95;;;12.80;81.90;;;;;;5114131;28;20047;-74
2022/10/13 09:22:38;;;;;;;14.60;6.25;;;12.90;79.90;;;;;;5116613;28;20058;-70
2022/10/13 09:25:10;;;;;;;11.07;6.28;;;12.90;80.30;;;;;;5116467;28;20050;-71
2022/10/13 09:27:56;;;;;;;12.70;6.05;;;12.90;78.70;;;;;;5116384;28;20096;-70
2022/10/13 09:30:39;;;;;;;14.05;6.72;;;13.00;80.70;;;;;;5116495;28;20509;-74
2022/10/13 09:33:22;;;;;;;8.50;5.78;;;13.10;79.20;;;;;;5097873;28;20063;-70
2022/10/13 09:36:01;;;;;;;12.27;5.57;;;13.20;78.30;;;;;;5094574;28;20139;-74
2022/10/13 09:38:27;;;;;;;11.63;6.22;;;13.20;77.00;;;;;;5095812;28;20035;-74
2022/10/13 09:41:03;;;;;;;10.07;5.90;;;13.20;77.40;;;;;;5095679;28;20027;-72
2022/10/13 09:43:53;;;;;;;10.43;5.72;;;13.30;77.30;;;;;;5107453;28;20035;-68
2022/10/13 09:46:38;;;;;;;12.70;6.50;;;13.30;76.80;;;;;;5108761;28;20047;-68
2022/10/13 09:49:19;;;;;;;7.30;5.25;;;13.40;77.50;;;;;;5106365;28;20035;-68
2022/10/13 09:51:45;;;;;;;9.63;5.82;;;13.50;76.20;;;;;;5094986;28;20421;-68
2022/10/13 09:54:25;;;;;;;10.40;5.60;;;13.50;75.70;;;;;;5094297;28;20024;-71
2022/10/13 09:57:04;;;;;;;10.70;5.75;;;13.60;74.90;;;;;;5094131;28;20020;-68
2022/10/13 09:59:38;;;;;;;13.93;5.85;;;13.60;74.50;;;;;;5094162;28;20393;-69
2022/10/13 10:02:19;;;;;;;8.73;5.40;;;13.70;73.90;;;;;;5095313;28;20103;-72
2022/10/13 10:04:45;;;;;;;12.07;6.28;;;13.70;72.40;;;;;;5095390;28;20024;-69
2022/10/13 10:07:20;;;;;;;8.93;5.03;;;13.80;73.50;;;;;;5095090;28;20031;-72
2022/10/13 10:10:00;;;;;;;8.98;5.68;;;13.80;72.50;;;;;;5095317;28;20508;-72
2022/10/13 10:12:29;;;;;;;8.38;5.72;;;13.90;73.70;;;;;;5093822;28;20016;-72
2022/10/13 10:14:55;;;;;;;10.93;5.57;;;14.00;73.40;;;;;;5095191;28;20431;-68
2022/10/13 10:17:40;;;;;;;9.43;5.80;;;14.00;72.10;;;;;;5094868;28;20016;-68
2022/10/13 10:20:17;;;;;;;13.07;6.47;;;14.00;72.10;;;;;;5094941;28;20024;-72
2022/10/13 10:23:03;;;;;;;11.10;5.80;;;14.00;71.30;;;;;;5094967;28;20021;-72
2022/10/13 10:25:41;;;;;;;10.93;5.30;;;14.10;72.40;;;;;;5093591;28;20047;-72
2022/10/13 10:28:07;;;;;;;10.18;5.65;;;14.20;71.70;;;;;;5094838;28;20032;-72
2022/10/13 10:30:39;;;;;;;11.95;6.57;;;14.20;71.40;;;;;;5094357;28;20032;-72
2022/10/13 10:33:11;;;;;;;;;;;14.20;71.60;;;;;;5113789;28;20026;-72
2022/10/13 10:36:01;;;;;;;11.60;5.25;;;14.30;71.90;;;;;;5113772;28;19930;-72
2022/10/13 10:38:53;;;;;;;12.13;5.97;;;14.30;70.20;;;;;;5115083;28;20030;-68
2022/10/13 10:41:48;;;;;;;12.95;5.65;;;14.30;71.10;;;;;;5114991;28;20028;-74
2022/10/13 10:44:18;;;;;;;7.38;5.60;;;14.30;70.80;;;;;;5114823;28;20052;-70
2022/10/13 10:46:47;;;;;;;10.00;5.43;;;14.30;70.80;;;;;;5114802;28;20430;-70
2022/10/13 10:49:24;;;;;;;10.98;5.60;;;14.40;71.40;;;;;;5106176;28;20046;-69
2022/10/13 10:51:49;;;;;;;8.63;6.00;;;14.40;70.60;;;;;;5094496;28;20020;-70
2022/10/13 10:54:24;;;;;;;10.13;5.82;;;14.50;71.10;;;;;;5094160;28;20103;-70
2022/10/13 10:57:05;;;;;;;8.65;5.65;;;14.50;70.50;;;;;;5094392;28;20105;-74
2022/10/13 10:59:45;;;;;;;8.25;6.38;;;14.40;69.10;;;;;;5094458;28;20081;-71
2022/10/13 11:02:41;;;;;;;14.57;6.05;;;14.50;70.50;;;;;;5094214;28;20110;-70
2022/10/13 11:05:07;;;;;;;10.70;5.72;;;14.60;71.40;;;;;;5093680;28;20811;-70
2022/10/13 11:07:32;;;;;;;6.28;5.40;;;14.60;69.50;;;;;;5103779;28;20035;-70
2022/10/13 11:10:25;;;;;;;9.48;5.03;;;14.70;71.50;;;;;;5113237;28;20028;-74
2022/10/13 11:12:50;;;;;;;10.60;5.72;;;14.70;70.80;;;;;;5114516;28;20030;-74
2022/10/13 11:15:22;;;;;;;13.55;5.78;;;14.80;71.90;;;;;;5114411;28;20020;-74
2022/10/13 11:17:47;;;;;;;8.73;5.68;;;14.80;70.70;;;;;;5094534;28;20020;-74
2022/10/13 11:20:19;;;;;;;11.43;6.03;;;14.80;69.40;;;;;;5109556;28;20022;-70
2022/10/13 11:22:57;;;;;;;11.82;5.32;;;14.80;69.70;;;;;;5114298;28;20030;-74
2022/10/13 11:25:42;;;;;;;7.53;5.20;;;14.80;70.30;;;;;;5114106;28;20031;-70
2022/10/13 11:28:20;;;;;;;9.02;5.68;;;14.80;70.10;;;;;;5114131;27;20523;-74
2022/10/13 11:30:50;;;;;;;10.07;6.45;;;14.90;70.50;;;;;;5112969;28;20024;-74
2022/10/13 11:33:33;;;;;;;9.68;6.28;;;14.90;69.30;;;;;;5073568;28;20163;-69
2022/10/13 11:36:36;;;;;;;9.63;5.72;;;14.90;68.60;;;;;;5073664;28;20060;-74
2022/10/13 11:39:08;;;;;;;10.25;6.15;;;14.90;69.50;;;;;;5073508;28;20467;-74
2022/10/13 11:41:48;;;;;;;9.27;5.80;;;15.00;69.90;;;;;;5073547;28;20028;-74
2022/10/13 11:44:25;;;;;;;10.32;5.80;;;15.00;68.80;;;;;;5073513;28;20108;-70
2022/10/13 11:47:16;;;;;;;14.35;6.95;;;15.00;69.70;;;;;;5073455;28;20032;-70
2022/10/13 11:50:01;;;;;;;8.32;6.18;;;15.10;71.30;;;;;;5072044;28;20128;-70
2022/10/13 11:53:05;;;;;;;9.63;5.25;;;15.10;71.70;;;;;;5073592;28;20024;-69
2022/10/13 11:56:00;;;;;;;7.47;4.93;;;15.20;72.30;;;;;;5073486;28;20104;-74
2022/10/13 11:58:31;;;;;;;8.25;4.97;;;15.30;69.90;;;;;;5068906;28;20099;-70
2022/10/13 12:01:10;;;;;;;9.55;6.25;;;15.40;68.30;;;;;;5073384;28;20386;-69
2022/10/13 12:03:42;;;;;;;11.32;5.88;;;15.40;67.00;;;;;;5073302;28;20013;-74
2022/10/13 12:06:33;;;;;;;12.52;6.80;;;15.50;67.80;;;;;;5073191;28;20037;-74
2022/10/13 12:09:02;;;;;;;10.63;7.13;;;15.50;67.90;;;;;;5073274;28;20021;-74
2022/10/13 12:11:31;;;;;;;10.63;6.50;;;15.40;68.10;;;;;;5071923;28;20020;-70
2022/10/13 12:13:58;;;;;;;11.38;6.18;;;15.40;69.50;;;;;;5071859;28;20025;-69
2022/10/13 12:16:25;;;;;;;12.00;6.43;;;15.40;70.00;;;;;;5084907;28;20026;-70
2022/10/13 12:18:50;;;;;;;9.50;6.10;;;15.40;70.80;;;;;;5097129;28;20024;-70
2022/10/13 12:21:19;;;;;;;18.17;9.98;;;15.40;71.00;;;;;;5097343;28;20039;-74
2022/10/13 12:23:47;;;;;;;13.00;8.02;;;15.50;72.80;;;;;;5097256;28;20062;-70
2022/10/13 12:26:19;;;;;;;15.50;6.65;;;15.50;71.60;;;;;;5097172;28;20035;-70
2022/10/13 12:28:57;;;;;;;20.83;13.23;;;15.50;70.50;;;;;;5097214;28;20026;-74
2022/10/13 12:31:25;;;;;;;11.45;6.65;;;15.50;71.80;;;;;;5097248;28;20020;-74
2022/10/13 12:33:59;;;;;;;11.93;6.75;;;15.50;69.80;;;;;;5096972;28;20024;-75
2022/10/13 12:36:26;;;;;;;9.88;7.30;;;15.60;69.20;;;;;;5096964;28;20383;-70
2022/10/13 12:38:56;;;;;;;8.65;5.93;;;15.60;70.10;;;;;;5112869;28;20020;-70
2022/10/13 12:41:34;;;;;;;11.02;6.30;;;15.70;68.30;;;;;;5117324;28;20027;-74
2022/10/13 12:44:01;;;;;;;12.65;6.75;;;15.80;68.70;;;;;;5117216;28;20023;-74
2022/10/13 12:46:47;;;;;;;10.73;6.57;;;15.70;69.20;;;;;;5115914;28;20031;-74
2022/10/13 12:49:15;;;;;;;9.25;6.10;;;15.60;68.90;;;;;;5117283;28;20026;-70
2022/10/13 12:51:45;;;;;;;9.55;6.30;;;15.60;68.50;;;;;;5117152;28;20023;-74
2022/10/13 12:54:29;;;;;;;11.30;5.57;;;15.50;68.60;;;;;;5115779;28;20019;-70